Flight Track Log - Related Links

Times and Time Zones

All times are in EDT time to prevent confusion due to time zone crossing. See the CTL13 flight status page for this flight to view local times or setup timezone preferences in your user account.

Time Position Orientation Groundspeed Altitude Reporting Facility
EDT Latitude Longitude Course Direction KTS MPH feet Rate Location/Type
Tue 20:38:04 39.9000 -86.2833 North 145 167 2,200  Level Indianapolis TRACON
Tue 20:39:04 39.9500 -86.2833 360° North 153 176 2,700 500 Climbing Indianapolis TRACON
Tue 20:40:04 39.9833 -86.3000 339° North 158 182 3,200 180 Climbing Indianapolis TRACON
Tue 20:42:00 40.0643 -86.3288 345° North  Level FlightAware
Tue 20:45:43 40.2375 -86.3689 350° North 164 189 3,900  Level Chicago Center
Tue 20:46:44 40.2828 -86.3825 347° North 161 185 4,000 49 Climbing Chicago Center
Tue 20:47:45 40.3242 -86.3931 349° North 158 182 4,000 -50 Level Chicago Center
Tue 20:48:45 40.3717 -86.4067 348° North 161 185 3,900 -50 Descending Chicago Center
Tue 20:49:00 40.3606 -86.4193 349° North  Level FlightAware
Tue 20:49:46 40.4131 -86.4175 349° North 163 188 3,900  Level Chicago Center
Tue 20:50:00 40.4033 -86.4300 349° North  Level FlightAware
Tue 20:50:33 40.4481 -86.4253 350° North 193 222 3,900  Level Chicago Center
Tue 20:51:00 40.4460 -86.4402 350° North  Level FlightAware
Tue 20:51:35 40.4992 -86.4469 342° North 179 206 3,900  Level Chicago Center
Tue 20:52:37 40.4586 -86.5103 230° Southwest 330 380 3,900  Level Chicago Center
Tue 20:53:39 40.5769 -86.4589 18° North 161 185 3,900  Level Chicago Center
Tue 20:54:41 40.6211 -86.4708 348° North 164 189 3,900  Level Chicago Center
Tue 20:55:43 40.6728 -86.4853 348° North 159 183 3,900 48 Level Chicago Center
Tue 20:56:45 40.7139 -86.4942 351° North 160 184 4,000  Climbing Chicago Center
Tue 20:57:47 40.7567 -86.5061 348° North 159 183 3,900 -49 Descending Chicago Center
Tue 20:58:48 40.8094 -86.5189 350° North 160 184 3,900 48 Level Chicago Center
Tue 20:59:51 40.8519 -86.5306 348° North 160 184 4,000  Climbing Chicago Center
Tue 21:00:52 40.8956 -86.5422 349° North 160 184 3,900 -49 Descending Chicago Center
Tue 21:01:54 40.9400 -86.5528 350° North 162 186 3,900 97 Level Chicago Center
Tue 21:02:56 40.9853 -86.5664 347° North 155 178 4,100 97 Climbing Chicago Center
Tue 21:03:58 41.0292 -86.5764 350° North 159 183 4,100  Level Chicago Center
Tue 21:05:00 41.0731 -86.5861 351° North 159 183 4,100 -48 Level Chicago Center
Tue 21:06:02 41.1161 -86.5978 348° North 159 183 4,000 -48 Descending Chicago Center
Tue 21:07:04 41.1594 -86.6075 350° North 159 183 4,000  Level Chicago Center
Tue 21:08:06 41.2003 -86.6258 341° North 158 182 4,000  Level Chicago Center
Tue 21:09:08 41.2258 -86.6867 299° West 160 184 4,000 49 Level Chicago Center
Tue 21:10:09 41.2458 -86.7461 294° West 164 189 4,100 49 Climbing Chicago Center
Tue 21:11:11 41.2636 -86.8019 293° West 165 190 4,100 -48 Level Chicago Center
Tue 21:12:13 41.2825 -86.8589 294° West 167 192 4,000  Descending Chicago Center
Tue 21:13:15 41.3019 -86.9167 294° West 171 197 4,100 48 Climbing Chicago Center
Tue 21:14:17 41.3219 -86.9733 295° West 170 196 4,100 -49 Level Chicago Center
Tue 21:15:18 41.3406 -87.0311 293° West 171 197 4,000 -49 Descending Chicago Center
Tue 21:16:20 41.3622 -87.0997 293° West 170 196 4,000 48 Level Chicago Center
Tue 21:17:22 41.3811 -87.1586 293° West 173 199 4,100 75 Climbing Chicago Center
Tue 21:17:40 41.3833 -87.1833 277° West 167 192 4,100  Level Chicago TRACON
Tue 21:18:46 41.4000 -87.2333 294° West 169 194 4,100  Level Chicago TRACON
Tue 21:19:40 41.4167 -87.3000 288° West 171 197 4,100 -56 Level Chicago TRACON
Tue 21:20:34 41.4333 -87.3500 294° West 173 199 4,000 -55 Descending Chicago TRACON
Tue 21:21:29 41.4436 -87.3942 287° West 171 197 4,000  Level Chicago Center
Tue 21:22:31 41.4603 -87.4658 287° West 171 197 4,000  Level Chicago Center
Tue 21:23:32 41.4736 -87.5253 287° West 170 196 4,000  Level Chicago Center
Tue 21:24:34 41.4878 -87.5844 288° West 169 194 4,000  Level Chicago Center
Tue 21:25:36 41.5031 -87.6428 289° West 169 194 4,000 49 Level Chicago Center
Tue 21:26:37 41.5178 -87.7025 288° West 169 194 4,100  Climbing Chicago Center
Tue 21:27:39 41.5317 -87.7622 287° West 170 196 4,000 -341 Descending Chicago Center
Tue 21:28:40 41.5542 -87.8336 293° West 174 200 3,400 -537 Descending Chicago Center
Tue 21:29:42 41.5819 -87.8875 305° West 178 205 2,900 -194 Descending Chicago Center
Tue 21:30:44 41.6183 -87.9186 327° Northwest 164 189 3,000 49 Climbing Chicago Center
Tue 21:31:45 41.6581 -87.9164 North 160 184 3,000 -293 Level Chicago Center
Tue 21:32:47 41.6867 -87.8750 47° Northeast 153 176 2,400 -367 Descending Chicago Center
Tue 21:33:23 41.7167 -87.8500 32° Northeast 142 163 2,400 -353 Level Chicago TRACON
Tue 21:34:29 41.7333 -87.8167 56° Northeast 109 125 1,800 -496 Descending Chicago TRACON
Tue 21:35:24 41.7500 -87.7833 56° Northeast 103 119 1,400 -436 Descending Chicago TRACON
Tue 21:37:00 41.7833 -87.7500 37° Northeast  Level FlightAware

Login

Don't have an account? Register now (free) for customized features, flight alerts, and more!